Time;durP1;ratioP1;P1;durP2;ratioP2;P2;SDS_P1;SDS_P2;PMS_P1;PMS_P2;Temp;Humidity;BMP_temperature;BMP_pressure;BME280_temperature;BME280_humidity;BME280_pressure;Samples;Min_cycle;Max_cycle;Signal;HPM_P1;HPM_P2
2023/10/26 00:00:22;;;;;;;0.55;0.55;;;12.90;76.00;;;14.43;55.52;95865.09;5012849;28;20057;-44
2023/10/26 00:02:49;;;;;;;1.48;0.60;;;12.90;75.80;;;14.44;55.40;95860.56;5012704;28;20045;-46
2023/10/26 00:05:17;;;;;;;0.68;0.60;;;12.90;76.00;;;14.38;55.60;95864.97;5020159;28;20058;-45
2023/10/26 00:07:45;;;;;;;0.43;0.43;;;12.90;76.10;;;14.38;55.56;95865.81;5012676;28;20054;-43
2023/10/26 00:10:13;;;;;;;1.30;0.57;;;12.90;76.40;;;14.38;55.80;95867.63;5013320;28;20525;-43
2023/10/26 00:12:40;;;;;;;0.35;0.35;;;12.90;76.60;;;14.40;55.85;95867.41;5012534;28;20042;-46
2023/10/26 00:15:08;;;;;;;0.50;0.50;;;12.90;76.20;;;14.33;55.63;95871.00;5012438;28;20057;-44
2023/10/26 00:17:37;;;;;;;0.70;0.70;;;12.80;76.50;;;14.29;55.84;95867.16;5012721;28;20038;-43
2023/10/26 00:20:06;;;;;;;12.60;11.13;;;12.70;77.20;;;14.32;55.89;95871.22;5012334;28;20053;-43
2023/10/26 00:22:34;;;;;;;1.33;0.55;;;12.70;77.10;;;14.18;56.10;95865.25;5012359;28;20053;-47
2023/10/26 00:25:02;;;;;;;0.80;0.50;;;12.60;77.10;;;14.12;56.24;95871.53;5012611;28;20075;-46
2023/10/26 00:27:29;;;;;;;0.73;0.60;;;12.60;77.50;;;14.15;56.10;95871.88;5012688;28;20045;-45
2023/10/26 00:29:57;;;;;;;1.00;0.60;;;12.70;77.70;;;14.18;56.11;95865.25;5012204;28;20046;-47
2023/10/26 00:32:25;;;;;;;0.95;0.70;;;12.60;77.60;;;14.21;56.16;95866.66;5012336;28;20644;-44
2023/10/26 00:34:52;;;;;;;1.27;0.75;;;12.60;77.50;;;14.16;56.13;95854.78;5008011;28;20049;-46
2023/10/26 00:37:20;;;;;;;0.50;0.50;;;12.60;77.80;;;14.11;56.19;95864.53;5012811;28;20050;-48
2023/10/26 00:39:47;;;;;;;1.02;0.80;;;12.60;77.20;;;14.11;56.32;95857.34;5010527;28;20503;-44
2023/10/26 00:42:15;;;;;;;1.40;0.50;;;12.60;77.50;;;14.14;56.23;95864.09;5011346;28;20517;-43
2023/10/26 00:44:46;;;;;;;0.70;0.70;;;12.60;78.00;;;14.15;56.28;95863.88;5012426;28;20520;-44
2023/10/26 00:47:14;;;;;;;2.45;0.70;;;12.60;78.00;;;14.13;56.15;95849.06;5004632;28;20038;-46
2023/10/26 00:49:42;;;;;;;0.77;0.63;;;12.50;78.20;;;14.17;56.29;95851.06;5018768;28;20045;-46
2023/10/26 00:52:11;;;;;;;1.08;0.75;;;12.60;78.00;;;14.18;56.21;95846.53;5018914;28;20046;-42
2023/10/26 00:54:42;;;;;;;1.55;0.57;;;12.60;78.00;;;14.20;56.00;95841.75;5010834;28;20056;-48
2023/10/26 00:57:11;;;;;;;1.33;1.08;;;12.60;78.00;;;14.19;56.07;95842.81;5002646;28;20061;-47
2023/10/26 00:59:41;;;;;;;1.13;1.02;;;12.60;77.40;;;14.14;56.01;95848.03;5012090;28;20042;-43
2023/10/26 01:02:09;;;;;;;0.60;0.60;;;12.60;77.70;;;14.07;56.19;95848.09;5002585;28;20053;-44
2023/10/26 01:04:37;;;;;;;1.60;0.73;;;12.60;77.10;;;13.98;56.23;95849.47;5011015;28;20053;-42
2023/10/26 01:07:04;;;;;;;0.75;0.75;;;12.50;77.40;;;14.00;56.20;95858.09;5002116;28;20418;-45
2023/10/26 01:09:32;;;;;;;1.30;0.63;;;12.50;77.40;;;13.94;56.25;95854.47;5010885;28;20050;-44
2023/10/26 01:12:01;;;;;;;1.38;0.60;;;12.50;77.30;;;13.93;56.23;95852.00;5010515;28;20050;-45
2023/10/26 01:14:28;;;;;;;1.08;0.80;;;12.50;77.80;;;13.93;56.39;95854.69;5010494;28;20452;-48
2023/10/26 01:16:56;;;;;;;1.80;0.82;;;12.50;77.50;;;13.93;56.45;95852.81;5011516;28;20065;-44
2023/10/26 01:19:41;;;;;;;1.60;0.63;;;12.50;77.50;;;13.96;56.31;95852.38;5009039;28;20054;-44
2023/10/26 01:22:09;;;;;;;2.08;1.10;;;12.50;77.30;;;13.95;56.20;95856.09;5011601;28;20049;-44
2023/10/26 01:24:38;;;;;;;1.30;0.77;;;12.50;77.50;;;13.91;56.36;95852.22;5010389;28;20052;-45
2023/10/26 01:27:06;;;;;;;3.40;1.90;;;12.50;77.40;;;13.92;56.29;95861.91;5018619;28;20687;-43
2023/10/26 01:29:33;;;;;;;0.88;0.88;;;12.50;77.00;;;13.98;56.27;95860.19;5011316;28;20297;-48
2023/10/26 01:32:01;;;;;;;1.85;0.60;;;12.50;77.40;;;14.02;56.04;95856.00;5010499;28;20073;-45
2023/10/26 01:34:31;;;;;;;0.95;0.80;;;12.50;77.10;;;14.04;56.08;95863.81;5010195;28;20046;-46
2023/10/26 01:36:59;;;;;;;1.95;0.73;;;12.50;77.20;;;14.07;56.02;95860.66;5010146;28;20421;-44
2023/10/26 01:39:26;;;;;;;3.13;0.90;;;12.60;76.80;;;14.02;56.04;95849.84;5010470;28;20057;-44
2023/10/26 01:41:54;;;;;;;0.60;0.60;;;12.50;77.00;;;14.02;55.91;95850.66;4993791;28;20069;-46
2023/10/26 01:44:23;;;;;;;1.00;0.65;;;12.50;76.60;;;13.96;55.87;95844.34;5011410;28;20045;-46
2023/10/26 01:46:50;;;;;;;1.05;0.70;;;12.50;76.60;;;13.93;55.92;95847.47;5010125;28;20185;-43
2023/10/26 01:49:18;;;;;;;1.55;0.80;;;12.50;76.80;;;13.94;55.98;95842.97;5009737;28;20425;-47
2023/10/26 01:51:46;;;;;;;2.85;0.93;;;12.50;77.00;;;13.93;56.17;95849.34;5009802;28;20045;-45
2023/10/26 01:54:13;;;;;;;0.65;0.60;;;12.50;76.40;;;13.92;55.96;95853.03;5011126;28;20064;-44
2023/10/26 01:56:41;;;;;;;1.60;0.77;;;12.40;77.00;;;13.90;55.94;95849.78;5010219;28;20049;-44
2023/10/26 01:59:09;;;;;;;0.95;0.85;;;12.40;77.00;;;13.95;56.00;95852.59;5009434;28;20046;-49
2023/10/26 02:01:36;;;;;;;1.15;0.75;;;12.40;77.00;;;13.93;55.90;95858.16;5010368;28;20053;-45
2023/10/26 02:04:04;;;;;;;0.65;0.60;;;12.30;77.40;;;13.96;56.03;95851.56;5010494;28;20046;-45
2023/10/26 02:06:32;;;;;;;1.42;0.63;;;12.30;77.60;;;13.96;55.95;95852.38;5009886;28;20041;-43
2023/10/26 02:09:00;;;;;;;1.98;0.90;;;12.30;77.70;;;13.94;56.16;95856.34;5009894;28;20041;-45
2023/10/26 02:11:27;;;;;;;1.15;0.90;;;12.30;78.00;;;13.93;56.09;95855.50;5011256;28;20053;-44
2023/10/26 02:13:55;;;;;;;1.55;0.60;;;12.30;78.00;;;13.91;56.05;95857.56;5010491;28;20049;-46
2023/10/26 02:16:22;;;;;;;1.10;0.70;;;12.30;77.80;;;13.95;56.12;95855.28;5003211;28;20048;-46
2023/10/26 02:18:50;;;;;;;0.80;0.80;;;12.30;78.30;;;13.99;56.22;95859.13;5009402;28;20069;-46
2023/10/26 02:21:18;;;;;;;1.27;0.82;;;12.30;77.60;;;13.98;56.16;95863.66;5010637;28;20417;-43
2023/10/26 02:23:45;;;;;;;0.95;0.68;;;12.30;78.10;;;13.99;55.98;95851.91;5009960;28;20045;-43
2023/10/26 02:26:13;;;;;;;1.10;0.70;;;12.30;78.20;;;13.98;55.97;95850.28;5011112;28;20049;-44
2023/10/26 02:28:41;;;;;;;4.47;0.88;;;12.30;77.90;;;13.99;56.08;95851.09;5010313;28;20038;-43
2023/10/26 02:31:08;;;;;;;1.77;1.00;;;12.40;77.50;;;13.98;55.98;95849.47;5013675;28;20049;-48
2023/10/26 02:33:36;;;;;;;1.85;0.73;;;12.40;77.80;;;13.97;55.95;95851.31;5014565;28;20057;-44
2023/10/26 02:36:06;;;;;;;1.27;0.73;;;12.40;77.60;;;13.97;55.96;95853.19;5013248;28;20037;-45
2023/10/26 02:38:34;;;;;;;1.52;0.85;;;12.30;76.70;;;13.89;55.59;95857.00;5014020;28;20049;-43
2023/10/26 02:41:04;;;;;;;0.90;0.70;;;12.30;76.20;;;13.87;55.53;95853.72;5014141;28;20050;-48
2023/10/26 02:43:32;;;;;;;0.50;0.43;;;12.30;75.90;;;13.82;55.65;95855.44;5014598;28;20413;-45
2023/10/26 02:46:06;;;;;;;0.77;0.65;;;12.30;76.00;;;13.88;55.59;95855.38;5014653;28;20049;-50
2023/10/26 02:48:34;;;;;;;2.88;0.88;;;12.30;76.30;;;13.91;55.46;95852.22;5013429;28;20042;-48
2023/10/26 02:51:03;;;;;;;2.00;0.60;;;12.40;76.10;;;13.96;55.36;95854.25;5012953;28;20040;-44
2023/10/26 02:53:31;;;;;;;1.15;0.70;;;12.40;75.80;;;13.94;55.10;95856.34;5013064;28;20050;-48
2023/10/26 02:55:59;;;;;;;1.05;0.63;;;12.40;74.60;;;13.96;55.25;95847.03;5021241;28;20042;-47
2023/10/26 02:58:26;;;;;;;1.40;1.30;;;12.40;75.80;;;13.98;55.21;95849.47;5012743;28;20505;-45
2023/10/26 03:00:55;;;;;;;8.77;1.35;;;12.40;75.50;;;14.01;54.80;95848.22;5013148;28;20053;-44
2023/10/26 03:03:23;;;;;;;0.88;0.60;;;12.40;75.50;;;14.02;55.16;95850.66;5014286;28;20033;-43
2023/10/26 03:05:51;;;;;;;2.67;0.65;;;12.40;75.60;;;14.05;55.14;95860.09;5014282;28;20046;-45
2023/10/26 03:08:20;;;;;;;0.85;0.70;;;12.40;75.70;;;14.00;54.99;95852.75;5012625;28;20053;-44
2023/10/26 03:10:47;;;;;;;0.75;0.55;;;12.30;75.40;;;13.97;54.95;95855.88;5012572;28;20052;-43
2023/10/26 03:13:15;;;;;;;1.73;0.65;;;12.30;75.20;;;13.96;54.84;95847.03;5013665;28;20053;-48
2023/10/26 03:15:42;;;;;;;1.73;0.80;;;12.30;75.30;;;13.98;54.79;95850.28;5012998;28;20050;-44
2023/10/26 03:18:10;;;;;;;1.05;0.70;;;12.30;75.60;;;13.96;54.68;95852.38;5013440;28;20398;-43
2023/10/26 03:20:39;;;;;;;2.03;0.95;;;12.30;74.60;;;13.94;54.82;95849.13;5007141;28;20054;-45
2023/10/26 03:23:07;;;;;;;1.90;1.10;;;12.30;75.50;;;13.95;54.75;95849.91;5013697;28;20038;-45
2023/10/26 03:25:35;;;;;;;2.42;0.80;;;12.30;75.20;;;13.93;54.79;95852.00;5012473;28;20042;-46
2023/10/26 03:28:02;;;;;;;1.17;1.00;;;12.30;75.10;;;13.93;54.76;95852.00;5013439;28;20045;-44
2023/10/26 03:30:31;;;;;;;1.50;1.02;;;12.30;75.30;;;13.91;54.62;95849.56;5013536;28;20398;-48
2023/10/26 03:32:59;;;;;;;3.13;0.80;;;12.30;74.40;;;13.92;54.45;95847.69;5012628;28;20054;-46
2023/10/26 03:35:27;;;;;;;1.20;1.00;;;12.20;74.20;;;13.88;54.64;95849.19;5011364;28;20053;-45
2023/10/26 03:37:54;;;;;;;0.60;0.60;;;12.20;74.80;;;13.79;54.54;95846.81;5011433;28;20519;-43
2023/10/26 03:40:22;;;;;;;2.20;0.73;;;12.10;75.10;;;13.84;54.68;95846.16;5012949;28;20413;-44
2023/10/26 03:42:49;;;;;;;1.20;1.08;;;12.20;74.80;;;13.87;54.49;95855.59;5012955;28;20042;-46
2023/10/26 03:45:17;;;;;;;0.68;0.50;;;12.20;74.80;;;13.79;54.35;95860.19;4996053;28;20034;-46
2023/10/26 03:47:45;;;;;;;0.90;0.65;;;12.10;75.10;;;13.77;54.35;95859.59;5013059;28;20471;-44
2023/10/26 03:50:14;;;;;;;1.38;0.85;;;12.00;74.80;;;13.69;54.60;95865.28;5011658;28;20506;-43
2023/10/26 03:52:41;;;;;;;1.38;0.70;;;12.00;75.10;;;13.69;54.55;95865.28;5013291;28;20046;-44
2023/10/26 03:55:09;;;;;;;1.83;0.65;;;12.00;75.20;;;13.64;54.43;95859.78;5013192;28;20402;-45
2023/10/26 03:57:37;;;;;;;1.05;0.77;;;11.80;75.70;;;13.58;54.53;95861.47;5013165;28;20425;-44
2023/10/26 04:00:05;;;;;;;1.13;1.02;;;11.80;75.80;;;13.52;54.59;95854.34;5012696;28;20049;-50
2023/10/26 04:02:42;;;;;;;1.95;0.77;;;11.70;76.30;;;13.43;54.70;95854.88;5015239;28;20413;-50
2023/10/26 04:05:10;;;;;;;1.02;0.80;;;11.60;76.50;;;13.39;54.74;95846.47;5013098;28;20073;-52
2023/10/26 04:07:39;;;;;;;0.60;0.60;;;11.50;76.90;;;13.35;54.77;95847.97;5012693;28;20049;-50
2023/10/26 04:10:08;;;;;;;2.85;1.00;;;11.50;76.40;;;13.28;54.92;95844.50;5012457;28;20046;-51
2023/10/26 04:12:35;;;;;;;1.05;0.95;;;11.40;77.30;;;13.15;55.11;95837.47;5013065;28;20053;-50
2023/10/26 04:15:04;;;;;;;0.63;0.63;;;11.30;77.80;;;13.04;55.39;95839.00;5012919;28;20057;-53
2023/10/26 04:17:32;;;;;;;0.95;0.80;;;11.20;78.60;;;12.96;55.60;95844.63;5011792;28;20057;-52
2023/10/26 04:19:59;;;;;;;1.90;0.80;;;11.10;78.80;;;12.90;55.76;95826.81;5012590;28;20045;-50
2023/10/26 04:22:27;;;;;;;1.23;0.90;;;11.10;79.60;;;12.86;55.88;95839.81;5012604;28;20508;-51
2023/10/26 04:24:56;;;;;;;0.50;0.50;;;11.10;79.20;;;12.87;55.79;95837.94;5012843;28;20041;-50
2023/10/26 04:27:23;;;;;;;1.00;0.57;;;11.10;78.70;;;12.95;55.76;95840.31;5012303;28;20054;-48
2023/10/26 04:29:51;;;;;;;0.85;0.63;;;11.20;78.30;;;12.99;55.79;95838.88;5012460;28;20065;-48
2023/10/26 04:32:18;;;;;;;1.20;0.82;;;11.30;78.20;;;12.99;55.70;95834.34;5012555;28;20414;-50
2023/10/26 04:34:46;;;;;;;1.73;0.85;;;11.30;78.00;;;13.02;55.79;95838.41;5012488;28;20049;-51
2023/10/26 04:37:14;;;;;;;1.77;0.82;;;11.30;77.50;;;12.95;55.73;95837.66;5012250;28;20057;-50
2023/10/26 04:39:43;;;;;;;1.23;1.13;;;11.20;78.20;;;12.90;55.79;95837.50;5018320;28;20050;-52
2023/10/26 04:42:12;;;;;;;0.65;0.40;;;11.10;78.60;;;12.90;55.91;95840.19;5012234;28;20061;-52
2023/10/26 04:44:40;;;;;;;2.10;0.80;;;11.10;78.40;;;12.87;55.88;95841.44;5019423;28;20033;-52
2023/10/26 04:47:09;;;;;;;1.40;0.63;;;11.10;78.60;;;12.89;55.76;95836.69;5012185;28;20053;-49
2023/10/26 04:49:37;;;;;;;1.20;0.55;;;11.20;78.20;;;12.94;55.80;95836.84;5011919;28;20065;-49
2023/10/26 04:52:05;;;;;;;2.20;0.70;;;11.20;78.50;;;12.93;55.92;95826.38;5012182;28;20049;-53
2023/10/26 04:54:33;;;;;;;1.05;0.60;;;11.20;78.00;;;12.88;55.80;95824.38;5012133;28;20068;-52
2023/10/26 04:57:00;;;;;;;0.93;0.70;;;11.20;77.70;;;12.88;55.94;95820.88;5012126;28;20413;-48
2023/10/26 04:59:28;;;;;;;0.80;0.77;;;11.20;77.90;;;12.87;55.90;95822.75;5011609;28;20064;-49
2023/10/26 05:01:55;;;;;;;2.15;1.17;;;11.20;78.20;;;12.82;55.93;95817.25;5012117;28;20053;-50
2023/10/26 05:04:23;;;;;;;0.60;0.60;;;11.10;78.80;;;12.85;56.11;95818.66;5011726;28;20045;-53
2023/10/26 05:06:51;;;;;;;1.40;0.60;;;11.10;79.10;;;12.84;56.23;95822.38;5011556;28;20034;-51
2023/10/26 05:09:19;;;;;;;0.75;0.60;;;11.10;79.30;;;12.82;56.16;95813.75;5011608;28;20517;-56
2023/10/26 05:11:46;;;;;;;1.15;0.70;;;11.10;79.60;;;12.75;56.50;95816.47;5011887;28;20042;-52
2023/10/26 05:14:14;;;;;;;0.75;0.50;;;11.00;80.20;;;12.64;56.74;95815.34;5011845;28;20053;-50
2023/10/26 05:16:42;;;;;;;2.10;0.70;;;11.00;81.00;;;12.66;56.90;95813.28;5011892;28;20517;-51
2023/10/26 05:19:09;;;;;;;2.05;1.13;;;11.00;80.90;;;12.64;56.97;95815.34;5011179;28;20425;-51
2023/10/26 05:21:37;;;;;;;1.75;0.70;;;10.90;81.20;;;12.65;57.25;95814.31;5010993;28;20050;-51
2023/10/26 05:24:05;;;;;;;1.75;0.90;;;11.00;81.30;;;12.68;57.11;95815.72;5011598;28;20101;-52
2023/10/26 05:26:33;;;;;;;0.87;0.70;;;11.00;81.30;;;12.64;57.21;95806.50;5011354;28;20050;-53
2023/10/26 05:29:03;;;;;;;1.30;0.68;;;11.00;81.40;;;12.58;57.44;95802.84;5011743;28;20505;-53
2023/10/26 05:31:31;;;;;;;1.08;0.98;;;10.90;81.80;;;12.50;57.60;95805.81;5018480;28;20049;-53
2023/10/26 05:33:58;;;;;;;1.40;1.00;;;10.80;82.20;;;12.49;57.84;95809.53;5011711;28;20414;-52
2023/10/26 05:36:26;;;;;;;1.45;1.10;;;10.80;82.50;;;12.49;57.69;95799.66;5011296;28;20050;-49
2023/10/26 05:38:54;;;;;;;1.45;0.80;;;10.80;82.60;;;12.45;57.96;95797.66;5010527;28;20046;-52
2023/10/26 05:41:21;;;;;;;1.63;1.00;;;10.70;82.80;;;12.43;57.86;95805.03;5011064;28;20421;-49
2023/10/26 05:43:49;;;;;;;0.87;0.87;;;10.70;83.50;;;12.30;58.52;95800.63;5011295;28;20049;-54
2023/10/26 05:46:17;;;;;;;0.77;0.70;;;10.70;84.10;;;12.31;58.54;95795.09;5011333;28;20049;-53
2023/10/26 05:48:45;;;;;;;2.63;0.95;;;10.60;84.00;;;12.32;58.41;95799.38;5011437;28;20042;-52
2023/10/26 05:51:13;;;;;;;3.03;1.08;;;10.60;84.50;;;12.33;58.48;95793.03;5011156;28;20396;-53
2023/10/26 05:53:40;;;;;;;1.52;1.00;;;10.60;84.60;;;12.38;58.38;95800.38;5011180;28;20052;-53
2023/10/26 05:56:08;;;;;;;3.30;1.58;;;10.60;84.40;;;12.39;58.38;95794.81;5011327;28;20046;-54
2023/10/26 05:58:36;;;;;;;1.65;1.35;;;10.70;84.60;;;12.45;58.28;95792.31;5011158;28;20057;-54
2023/10/26 06:01:04;;;;;;;0.85;0.80;;;10.70;84.40;;;12.47;58.19;95788.38;5011238;28;20046;-53
2023/10/26 06:03:32;;;;;;;1.95;1.60;;;10.70;84.30;;;12.53;58.33;95787.50;5011110;28;20061;-51
2023/10/26 06:06:01;;;;;;;3.10;1.40;;;10.80;84.10;;;12.57;58.26;95788.72;5014568;28;20057;-48
2023/10/26 06:08:29;;;;;;;2.20;0.82;;;10.90;83.80;;;12.50;58.39;95784.47;5015138;28;20046;-53
2023/10/26 06:10:58;;;;;;;2.25;1.63;;;10.90;83.60;;;12.53;58.25;95795.53;5015097;28;20049;-50
2023/10/26 06:13:26;;;;;;;3.65;1.65;;;10.90;83.60;;;12.59;58.30;95793.84;5014827;28;20042;-50
2023/10/26 06:15:53;;;;;;;1.80;0.93;;;10.90;83.50;;;12.60;58.38;95785.59;5014060;28;20034;-53
2023/10/26 06:18:21;;;;;;;2.03;1.20;;;11.00;83.00;;;12.66;58.31;95793.75;5014933;28;20457;-50
2023/10/26 06:20:59;;;;;;;0.97;0.90;;;11.00;82.80;;;12.69;58.23;95794.13;5014910;28;20193;-51
2023/10/26 06:23:28;;;;;;;0.83;0.67;;;11.00;82.50;;;12.72;58.26;95793.72;5014847;28;20053;-50
2023/10/26 06:25:59;;;;;;;1.67;0.80;;;11.10;82.90;;;12.72;58.33;95801.72;5015151;28;20046;-50
2023/10/26 06:28:28;;;;;;;1.35;0.90;;;11.10;82.80;;;12.76;58.20;95802.91;5014507;28;20049;-53
2023/10/26 06:31:07;;;;;;;2.75;1.67;;;11.20;82.20;;;12.79;58.40;95789.13;5006583;28;20429;-47
2023/10/26 06:33:35;;;;;;;4.00;1.30;;;11.20;82.80;;;12.82;58.24;95789.72;5004514;28;20042;-54
2023/10/26 06:36:03;;;;;;;5.88;2.78;;;11.20;83.00;;;12.85;58.49;95795.41;5005424;28;20045;-50
2023/10/26 06:38:31;;;;;;;17.23;8.90;;;11.20;84.00;;;12.85;58.87;95808.78;5008157;28;20513;-50
2023/10/26 06:40:59;;;;;;;22.42;10.68;;;11.20;84.30;;;12.89;58.81;95803.81;5008761;28;20042;-47
2023/10/26 06:43:26;;;;;;;11.82;6.20;;;11.20;85.00;;;12.94;58.81;95809.31;5009684;28;20506;-52
2023/10/26 06:45:54;;;;;;;3.60;1.30;;;11.30;84.90;;;12.90;59.06;95805.47;5009293;28;20413;-52
2023/10/26 06:48:22;;;;;;;5.63;1.25;;;11.20;85.30;;;12.93;59.19;95797.81;5009707;28;20494;-53
2023/10/26 06:50:58;;;;;;;1.00;0.90;;;11.20;85.90;;;12.93;59.44;95800.50;5008121;28;20042;-54
2023/10/26 06:53:28;;;;;;;1.85;0.85;;;11.20;86.90;;;12.96;59.26;95805.38;5006659;28;20056;-51
2023/10/26 06:55:56;;;;;;;5.53;1.20;;;11.20;87.50;;;12.98;59.61;95797.97;5004632;28;20409;-52
2023/10/26 06:58:24;;;;;;;3.92;1.40;;;11.30;88.20;;;12.99;59.74;95799.63;5007436;28;20057;-51
2023/10/26 07:00:52;;;;;;;3.30;1.10;;;11.30;88.20;;;12.96;59.79;95800.03;5006864;28;20045;-53
2023/10/26 07:03:21;;;;;;;5.07;1.50;;;11.20;89.10;;;12.94;60.01;95804.78;5005742;28;20054;-54
2023/10/26 07:05:49;;;;;;;3.75;1.67;;;11.20;89.40;;;12.97;60.24;95801.69;5003269;28;20064;-54
2023/10/26 07:08:17;;;;;;;4.57;2.58;;;11.20;90.80;;;12.97;60.29;95803.56;5007232;28;20038;-53
2023/10/26 07:10:44;;;;;;;7.53;3.40;;;11.20;91.10;;;12.95;60.80;95803.75;5004283;28;20045;-52
2023/10/26 07:13:12;;;;;;;4.60;3.25;;;11.20;91.50;;;12.97;60.84;95803.56;5003982;28;20553;-51
2023/10/26 07:15:40;;;;;;;4.78;3.03;;;11.20;91.70;;;13.01;61.05;95796.72;5008703;28;20384;-52
2023/10/26 07:18:08;;;;;;;6.00;2.92;;;11.30;91.80;;;13.05;60.99;95799.78;5005604;28;20519;-52
2023/10/26 07:20:37;;;;;;;3.25;2.00;;;11.40;91.50;;;13.00;61.21;95798.56;5006591;28;20046;-52
2023/10/26 07:23:04;;;;;;;2.90;1.98;;;11.30;92.00;;;13.03;61.27;95799.16;5008677;28;20042;-52
2023/10/26 07:25:37;;;;;;;2.72;2.25;;;11.30;92.20;;;13.05;61.35;95789.09;5007650;28;20050;-53
2023/10/26 07:28:05;;;;;;;5.65;2.35;;;11.40;92.40;;;13.09;61.38;95791.09;5004866;28;20065;-52
2023/10/26 07:30:42;;;;;;;3.25;2.63;;;11.40;92.20;;;13.15;61.23;95795.53;5020029;28;20050;-52
2023/10/26 07:33:10;;;;;;;5.50;2.97;;;11.40;92.00;;;13.16;61.47;95791.00;5002064;28;20069;-51
2023/10/26 07:35:41;;;;;;;11.77;5.50;;;11.40;92.70;;;13.16;61.47;95791.00;5006084;28;20069;-51
2023/10/26 07:38:09;;;;;;;15.18;8.80;;;11.50;92.90;;;13.17;61.53;95788.09;5003250;28;20064;-54
2023/10/26 07:40:57;;;;;;;9.07;4.35;;;11.50;93.20;;;13.15;61.78;95776.03;5007139;28;20049;-52
2023/10/26 07:43:26;;;;;;;4.47;2.42;;;11.40;94.10;;;13.16;62.03;95777.63;5006660;28;20045;-53
2023/10/26 07:45:55;;;;;;;2.78;1.92;;;11.40;94.70;;;13.17;62.18;95776.63;5005960;28;20552;-52
2023/10/26 07:48:22;;;;;;;3.70;2.40;;;11.40;95.00;;;13.19;62.14;95778.00;5003627;28;20064;-51
2023/10/26 07:50:51;;;;;;;2.33;1.80;;;11.40;95.20;;;13.21;62.33;95775.13;5003787;28;20042;-53
2023/10/26 07:53:19;;;;;;;3.42;2.28;;;11.50;95.40;;;13.23;62.39;95781.06;5007741;28;20038;-52
2023/10/26 07:55:46;;;;;;;4.43;2.20;;;11.50;95.60;;;13.25;62.40;95784.31;5005169;28;20497;-52
2023/10/26 07:58:14;;;;;;;2.47;1.58;;;11.50;95.30;;;13.26;62.56;95782.47;5005362;28;20536;-53
2023/10/26 08:00:42;;;;;;;3.40;1.75;;;11.50;95.60;;;13.30;62.53;95783.66;5003967;28;20422;-49
2023/10/26 08:03:10;;;;;;;2.63;1.77;;;11.60;95.30;;;13.32;62.58;95777.09;5004173;28;20058;-52
2023/10/26 08:05:37;;;;;;;4.78;2.80;;;11.60;95.10;;;13.35;62.44;95781.97;5006641;28;20397;-51
2023/10/26 08:08:05;;;;;;;5.80;2.33;;;11.60;95.20;;;13.38;62.41;95789.53;5008025;28;20049;-49
2023/10/26 08:10:36;;;;;;;4.80;2.80;;;11.70;95.10;;;13.41;62.61;95777.59;5004847;28;20077;-54
2023/10/26 08:13:05;;;;;;;5.78;2.65;;;11.70;95.30;;;13.44;62.54;95762.97;5005065;28;20037;-51
2023/10/26 08:15:32;;;;;;;4.35;2.83;;;11.70;95.10;;;13.46;62.67;95774.25;5013389;28;20049;-51
2023/10/26 08:18:20;;;;;;;4.63;2.97;;;11.80;95.50;;;13.50;62.64;95772.75;5012895;28;20046;-53
2023/10/26 08:20:51;;;;;;;3.30;2.22;;;11.80;95.40;;;13.55;62.73;95775.56;5011321;28;20061;-51
2023/10/26 08:23:20;;;;;;;5.88;2.10;;;11.90;95.30;;;13.57;62.79;95770.78;5011587;28;20441;-52
2023/10/26 08:25:48;;;;;;;4.30;1.90;;;11.90;95.60;;;13.61;62.81;95773.84;5009132;28;20046;-52
2023/10/26 08:28:15;;;;;;;1.60;1.30;;;11.90;95.60;;;13.66;62.76;95776.66;5009000;28;20489;-51
2023/10/26 08:30:43;;;;;;;3.50;1.35;;;12.00;95.20;;;13.67;62.75;95775.63;5010841;28;20053;-51
2023/10/26 08:33:11;;;;;;;2.28;1.30;;;12.00;94.90;;;13.69;62.76;95779.69;5011135;28;20042;-54
2023/10/26 08:35:41;;;;;;;2.55;1.20;;;12.00;95.20;;;13.75;62.67;95772.63;5010567;28;20046;-53
2023/10/26 08:38:09;;;;;;;3.90;1.48;;;12.10;95.00;;;13.77;62.69;95768.69;5011102;28;20049;-52
2023/10/26 08:40:37;;;;;;;2.42;1.20;;;12.20;94.40;;;13.81;62.72;95770.91;5011038;28;20060;-52
2023/10/26 08:43:05;;;;;;;2.70;0.98;;;12.20;94.20;;;13.88;62.97;95782.31;5012690;28;20528;-53
2023/10/26 08:45:35;;;;;;;3.00;1.60;;;12.30;94.00;;;13.95;62.64;95775.03;5019109;28;20172;-52
2023/10/26 08:48:04;;;;;;;2.67;1.50;;;12.30;93.80;;;13.99;62.72;95778.88;5010655;28;20042;-51
2023/10/26 08:50:31;;;;;;;4.88;2.33;;;12.40;93.60;;;14.04;62.75;95795.06;5009424;28;20038;-51
2023/10/26 08:52:59;;;;;;;3.55;2.35;;;12.50;93.90;;;14.09;62.74;95787.16;5003721;28;20034;-53
2023/10/26 08:55:27;;;;;;;4.57;3.60;;;12.50;93.90;;;14.11;62.96;95782.41;5011886;28;20076;-54
2023/10/26 08:57:58;;;;;;;5.03;3.28;;;12.60;94.30;;;14.18;62.96;95782.31;5012017;28;20046;-51
2023/10/26 09:00:30;;;;;;;2.53;1.73;;;12.60;93.80;;;14.20;62.88;95782.88;5011797;28;20405;-51
2023/10/26 09:02:58;;;;;;;4.03;2.95;;;12.60;93.70;;;14.24;62.79;95777.91;5012015;28;20429;-49
2023/10/26 09:05:26;;;;;;;2.53;1.52;;;12.70;94.00;;;14.27;62.73;95790.78;5012344;28;20497;-49
2023/10/26 09:07:54;;;;;;;2.72;1.63;;;12.80;93.40;;;14.29;63.00;95786.88;5011580;28;20053;-51
2023/10/26 09:10:33;;;;;;;3.28;1.80;;;12.80;93.60;;;14.33;63.16;95784.56;5011463;28;20493;-50
2023/10/26 09:13:04;;;;;;;3.15;1.40;;;12.80;94.00;;;14.36;63.24;95778.72;5003483;28;20049;-49
2023/10/26 09:15:50;;;;;;;2.58;1.40;;;12.90;95.00;;;14.35;63.42;95782.47;5007266;28;20057;-50
2023/10/26 09:18:20;;;;;;;3.15;1.33;;;12.80;96.00;;;14.41;63.56;95786.06;5011832;28;20057;-52
2023/10/26 09:21:05;;;;;;;2.33;1.30;;;12.90;96.60;;;14.41;63.69;95789.56;5011600;28;20054;-52
2023/10/26 09:23:37;;;;;;;2.05;1.30;;;12.80;97.20;;;14.43;63.59;95792.81;5018896;28;20045;-52
2023/10/26 09:26:09;;;;;;;3.83;1.25;;;12.80;97.50;;;14.45;63.54;95781.88;5004124;28;20042;-50
2023/10/26 09:28:54;;;;;;;1.65;1.17;;;12.90;97.00;;;14.44;63.59;95791.75;5011638;28;20071;-52
2023/10/26 09:31:23;;;;;;;1.88;1.15;;;13.00;96.20;;;14.47;63.66;95806.56;5011497;28;20053;-52
2023/10/26 09:33:51;;;;;;;2.08;1.48;;;13.00;96.60;;;14.51;63.98;95807.72;5011653;28;20045;-51
2023/10/26 09:36:20;;;;;;;1.92;1.05;;;13.00;96.90;;;14.50;63.59;95812.28;5011631;28;20048;-51
2023/10/26 09:38:48;;;;;;;1.50;1.00;;;12.90;97.60;;;14.53;63.88;95819.03;5013861;28;20041;-54
2023/10/26 09:41:21;;;;;;;4.25;1.40;;;12.90;97.80;;;14.49;63.87;95817.84;5011129;28;20049;-50
2023/10/26 09:43:49;;;;;;;1.73;1.17;;;12.80;98.30;;;14.44;64.08;95821.22;5018672;28;20037;-51
2023/10/26 09:46:20;;;;;;;2.97;1.90;;;12.70;99.90;;;14.37;64.27;95834.72;5011524;28;20045;-54
2023/10/26 09:48:48;;;;;;;3.25;2.00;;;12.70;99.90;;;14.29;64.69;95835.03;5011351;28;20050;-48
2023/10/26 09:51:18;;;;;;;2.92;1.63;;;12.60;99.90;;;14.25;64.78;95839.22;5018186;28;20601;-48
2023/10/26 09:53:48;;;;;;;2.65;1.23;;;12.50;99.90;;;14.17;65.15;95829.66;5018345;28;20042;-52
2023/10/26 09:56:24;;;;;;;3.53;1.50;;;12.40;99.90;;;14.14;65.25;95832.78;5018557;28;20057;-52
2023/10/26 09:58:53;;;;;;;4.85;2.88;;;12.40;99.90;;;14.11;65.40;95837.75;5018808;28;20050;-52
2023/10/26 10:01:32;;;;;;;4.05;2.03;;;12.30;99.90;;;14.04;65.65;95808.44;5018325;28;20054;-49
2023/10/26 10:04:01;;;;;;;2.70;2.00;;;12.20;99.90;;;14.01;66.00;95808.06;5011023;28;20080;-52
2023/10/26 10:06:54;;;;;;;4.43;1.70;;;12.20;99.90;;;13.97;66.13;95829.13;5011144;28;20042;-52
2023/10/26 10:09:26;;;;;;;4.00;2.72;;;12.20;99.90;;;13.95;66.10;95831.19;5004995;28;20520;-51
2023/10/26 10:12:14;;;;;;;4.47;2.50;;;12.10;99.90;;;13.96;66.27;95825.63;5011328;28;20042;-52
2023/10/26 10:14:48;;;;;;;2.63;2.00;;;12.20;99.90;;;14.00;66.25;95826.00;5011046;28;20046;-54
2023/10/26 10:17:22;;;;;;;3.85;2.60;;;12.30;99.90;;;14.01;66.39;95822.25;5011239;28;20509;-53
2023/10/26 10:20:15;;;;;;;5.00;2.58;;;12.40;99.90;;;14.02;66.30;95826.59;5011007;28;20046;-49
2023/10/26 10:22:46;;;;;;;3.53;2.92;;;12.30;99.90;;;14.08;66.37;95812.28;5011103;28;20056;-53
2023/10/26 10:25:18;;;;;;;3.22;2.80;;;12.30;99.90;;;14.08;66.43;95809.63;5011167;28;20053;-50
2023/10/26 10:27:49;;;;;;;4.15;2.30;;;12.40;99.90;;;14.12;66.24;95816.13;5010171;28;20061;-49